createdAt,value
2022-08-11T00:00:36.808Z,12.20
2022-08-11T00:03:46.320Z,12.20
2022-08-11T00:06:50.049Z,12.20
2022-08-11T00:09:54.453Z,12.30
2022-08-11T00:13:01.678Z,12.20
2022-08-11T00:16:11.846Z,12.20
2022-08-11T00:20:14.997Z,12.20
2022-08-11T00:22:48.517Z,12.10
2022-08-11T00:25:53.680Z,12.20
2022-08-11T00:29:09.027Z,12.20
2022-08-11T00:32:16.697Z,12.20
2022-08-11T00:35:54.098Z,12.20
2022-08-11T00:38:52.487Z,12.30
2022-08-11T00:42:11.975Z,12.20
2022-08-11T00:45:27.133Z,12.20
2022-08-11T00:48:37.501Z,12.30
2022-08-11T00:52:05.851Z,12.30
2022-08-11T00:55:36.833Z,12.40
2022-08-11T00:59:34.978Z,12.40
2022-08-11T01:03:19.516Z,12.40
2022-08-11T01:06:53.139Z,12.40
2022-08-11T01:10:24.251Z,12.40
2022-08-11T01:14:12.678Z,12.30
2022-08-11T01:18:03.805Z,12.20
2022-08-11T01:21:52.589Z,12.20
2022-08-11T01:25:27.252Z,12.10
2022-08-11T01:29:06.079Z,12.00
2022-08-11T01:32:46.846Z,12.00
2022-08-11T01:36:28.920Z,11.80
2022-08-11T01:40:02.030Z,11.70
2022-08-11T01:43:58.032Z,11.70
2022-08-11T01:47:36.679Z,11.60
2022-08-11T01:50:55.143Z,11.50
2022-08-11T01:54:05.157Z,11.40
2022-08-11T01:57:21.459Z,11.40
2022-08-11T02:00:30.489Z,11.30
2022-08-11T02:03:45.288Z,11.30
2022-08-11T02:06:57.189Z,11.30
2022-08-11T02:10:35.201Z,11.20
2022-08-11T02:13:49.367Z,11.20
2022-08-11T02:17:14.076Z,11.10
2022-08-11T02:20:42.507Z,11.10
2022-08-11T02:24:06.670Z,11.10
2022-08-11T02:27:23.899Z,11.00
2022-08-11T02:30:34.199Z,11.00
2022-08-11T02:33:39.491Z,11.00
2022-08-11T02:36:47.184Z,10.90
2022-08-11T02:40:03.398Z,10.90
2022-08-11T02:43:15.171Z,10.90
2022-08-11T02:46:22.921Z,10.80
2022-08-11T02:49:59.937Z,10.80
2022-08-11T02:53:17.655Z,10.80
2022-08-11T02:56:29.536Z,10.70
2022-08-11T02:59:54.236Z,10.70
2022-08-11T03:03:11.885Z,10.70
2022-08-11T03:06:30.960Z,10.60
2022-08-11T03:09:47.695Z,10.60
2022-08-11T03:13:15.797Z,10.60
2022-08-11T03:16:44.395Z,10.60
2022-08-11T03:19:55.238Z,10.50
2022-08-11T03:23:05.785Z,10.60
2022-08-11T03:26:29.916Z,10.60
2022-08-11T03:29:38.700Z,14.00
2022-08-11T03:33:09.192Z,10.60
2022-08-11T03:36:23.099Z,10.60
2022-08-11T03:39:34.734Z,10.60
2022-08-11T03:42:49.436Z,10.60
2022-08-11T03:46:02.989Z,10.70
2022-08-11T03:49:21.007Z,10.70
2022-08-11T03:52:34.710Z,10.70
2022-08-11T03:56:07.766Z,10.90
2022-08-11T03:59:40.835Z,10.80
2022-08-11T04:03:16.784Z,10.90
2022-08-11T04:06:55.633Z,10.90
2022-08-11T04:10:55.954Z,11.00
2022-08-11T04:15:09.742Z,11.10
2022-08-11T04:18:43.771Z,11.20
2022-08-11T04:22:09.545Z,11.40
2022-08-11T04:25:58.467Z,11.60
2022-08-11T04:29:15.287Z,11.80
2022-08-11T04:32:37.307Z,12.00
2022-08-11T04:35:51.346Z,12.10
2022-08-11T04:39:20.147Z,12.30
2022-08-11T04:43:22.275Z,12.50
2022-08-11T04:46:48.525Z,12.70
2022-08-11T04:50:34.058Z,12.90
2022-08-11T04:54:07.034Z,13.10
2022-08-11T04:57:38.703Z,13.30
2022-08-11T05:01:13.508Z,13.50
2022-08-11T05:05:05.253Z,13.70
2022-08-11T05:08:53.496Z,13.80
2022-08-11T05:12:10.608Z,14.00
2022-08-11T05:15:42.966Z,14.20
2022-08-11T05:19:07.206Z,14.40
2022-08-11T05:22:30.814Z,14.60
2022-08-11T05:26:44.597Z,14.70
2022-08-11T05:29:59.658Z,14.70
2022-08-11T05:33:26.471Z,14.80
2022-08-11T05:36:37.292Z,15.00
2022-08-11T05:40:05.313Z,15.20
2022-08-11T05:43:32.449Z,15.40
2022-08-11T05:46:59.601Z,15.70
2022-08-11T05:50:32.843Z,15.90
2022-08-11T05:53:54.634Z,16.10
2022-08-11T05:57:01.224Z,16.20
2022-08-11T06:00:10.242Z,16.40
2022-08-11T06:03:23.674Z,16.50
2022-08-11T06:06:29.389Z,16.50
2022-08-11T06:09:35.889Z,16.60
2022-08-11T06:12:40.926Z,16.70
2022-08-11T06:15:48.440Z,16.80
2022-08-11T06:18:52.239Z,17.00
2022-08-11T06:21:57.261Z,17.20
2022-08-11T06:25:03.367Z,17.40
2022-08-11T06:28:08.355Z,17.80
2022-08-11T06:31:17.899Z,17.70
2022-08-11T06:35:42.167Z,17.80
2022-08-11T06:40:52.880Z,16.30
2022-08-11T06:44:24.545Z,17.30
2022-08-11T06:47:58.702Z,18.20
2022-08-11T06:51:14.241Z,18.40
2022-08-11T06:54:18.929Z,18.40
2022-08-11T06:57:41.968Z,18.40
2022-08-11T07:00:51.368Z,18.70
2022-08-11T07:04:10.328Z,18.90
2022-08-11T07:08:33.027Z,19.00
2022-08-11T07:12:23.139Z,19.30
2022-08-11T07:16:09.088Z,19.80
2022-08-11T07:19:26.619Z,20.10
2022-08-11T07:23:05.651Z,20.70
2022-08-11T07:26:27.838Z,20.90
2022-08-11T07:29:33.604Z,20.80
2022-08-11T07:32:47.009Z,20.60
2022-08-11T07:35:55.973Z,20.40
2022-08-11T07:39:00.775Z,20.50
2022-08-11T07:42:08.621Z,20.40
2022-08-11T07:45:35.506Z,20.50
2022-08-11T07:49:01.039Z,20.20
2022-08-11T07:52:22.064Z,20.30
2022-08-11T07:55:50.293Z,20.00
2022-08-11T07:59:09.686Z,20.10
2022-08-11T08:02:32.047Z,20.00
2022-08-11T08:05:55.569Z,20.30
2022-08-11T08:09:16.686Z,20.80
2022-08-11T08:12:40.191Z,21.20
2022-08-11T08:16:02.125Z,20.70
2022-08-11T08:19:05.735Z,20.90
2022-08-11T08:22:38.454Z,21.00
2022-08-11T08:25:36.127Z,21.40
2022-08-11T08:28:40.629Z,21.10
2022-08-11T08:31:44.008Z,21.40
2022-08-11T08:34:48.838Z,21.80
2022-08-11T08:37:54.590Z,22.00
2022-08-11T08:41:00.429Z,22.00
2022-08-11T08:44:35.063Z,22.20
2022-08-11T08:47:42.493Z,22.60
2022-08-11T08:51:11.084Z,22.70
2022-08-11T08:54:20.578Z,22.60
2022-08-11T08:57:25.258Z,22.90
2022-08-11T09:00:43.322Z,23.00
2022-08-11T09:04:05.099Z,22.60
2022-08-11T09:07:13.228Z,22.30
2022-08-11T09:10:21.554Z,22.40
2022-08-11T09:13:25.051Z,22.50
2022-08-11T09:16:29.002Z,23.10
2022-08-11T09:19:32.557Z,23.70
2022-08-11T09:23:24.287Z,23.80
2022-08-11T09:26:38.375Z,24.10
2022-08-11T09:29:41.802Z,23.80
2022-08-11T09:32:45.203Z,23.90
2022-08-11T09:35:50.751Z,24.30
2022-08-11T09:39:12.299Z,24.40
2022-08-11T09:42:23.558Z,24.10
2022-08-11T09:45:27.739Z,23.70
2022-08-11T09:48:46.891Z,23.70
2022-08-11T09:52:02.086Z,23.60
2022-08-11T09:55:12.375Z,22.90
2022-08-11T09:58:41.680Z,22.90
2022-08-11T10:01:49.132Z,22.80
2022-08-11T10:04:54.501Z,23.50
2022-08-11T10:08:00.022Z,23.30
2022-08-11T10:11:04.093Z,23.00
2022-08-11T10:14:33.223Z,22.90
2022-08-11T10:18:04.129Z,22.50
2022-08-11T10:21:12.094Z,22.50
2022-08-11T10:24:35.039Z,22.40
2022-08-11T10:28:18.440Z,22.60
2022-08-11T10:31:23.084Z,23.00
2022-08-11T10:34:29.111Z,23.10
2022-08-11T10:38:07.729Z,23.10
2022-08-11T10:41:18.447Z,22.90
2022-08-11T10:44:23.544Z,23.50
2022-08-11T10:47:36.789Z,24.10
2022-08-11T10:50:58.101Z,24.50
2022-08-11T10:54:19.182Z,24.40
2022-08-11T10:57:40.916Z,24.40
2022-08-11T11:00:45.949Z,24.90
2022-08-11T11:03:52.763Z,25.10
2022-08-11T11:07:04.621Z,25.70
2022-08-11T11:10:09.223Z,26.10
2022-08-11T11:13:30.001Z,26.40
2022-08-11T11:16:52.027Z,26.10
2022-08-11T11:20:01.076Z,26.60
2022-08-11T11:23:07.456Z,27.00
2022-08-11T11:26:40.561Z,26.80
2022-08-11T11:29:58.140Z,27.50
2022-08-11T11:33:12.540Z,27.00
2022-08-11T11:36:24.110Z,27.20
2022-08-11T11:39:29.201Z,26.90
2022-08-11T11:42:32.996Z,27.50
2022-08-11T11:45:36.969Z,28.00
2022-08-11T11:48:42.196Z,28.40
2022-08-11T11:51:50.070Z,28.20
2022-08-11T11:54:57.654Z,28.70
2022-08-11T12:03:15.481Z,27.60
2022-08-11T12:06:20.989Z,29.60
2022-08-11T12:09:25.856Z,29.80
2022-08-11T12:12:46.852Z,29.50
2022-08-11T12:16:32.392Z,30.70
2022-08-11T12:19:17.426Z,29.20
2022-08-11T12:22:38.998Z,28.50
2022-08-11T12:26:26.464Z,28.60
2022-08-11T12:29:28.723Z,28.60
2022-08-11T12:32:34.959Z,29.50
2022-08-11T12:35:38.936Z,28.40
2022-08-11T12:39:23.149Z,27.30
2022-08-11T12:42:55.273Z,26.20
2022-08-11T12:46:01.950Z,25.20
2022-08-11T12:49:30.586Z,24.50
2022-08-11T12:52:41.045Z,24.20
2022-08-11T12:56:07.336Z,23.70
2022-08-11T12:59:30.746Z,24.10
2022-08-11T13:02:52.411Z,24.60
2022-08-11T13:05:58.284Z,26.70
2022-08-11T13:09:02.096Z,26.90
2022-08-11T13:12:23.381Z,28.20
2022-08-11T13:15:28.172Z,29.00
2022-08-11T13:18:31.730Z,30.20
2022-08-11T13:21:35.297Z,30.80
2022-08-11T13:24:39.554Z,30.20
2022-08-11T13:27:43.572Z,29.00
2022-08-11T13:31:07.878Z,28.60
2022-08-11T13:34:12.033Z,27.80
2022-08-11T13:37:17.710Z,28.30
2022-08-11T13:40:33.158Z,28.90
2022-08-11T13:43:47.183Z,28.00
2022-08-11T13:46:53.697Z,26.50
2022-08-11T13:49:58.261Z,25.40
2022-08-11T13:53:01.819Z,24.60
2022-08-11T13:56:05.597Z,24.10
2022-08-11T13:59:09.967Z,23.40
2022-08-11T14:02:21.188Z,22.50
2022-08-11T14:05:38.803Z,22.00
2022-08-11T14:08:47.385Z,21.50
2022-08-11T14:12:21.589Z,20.80
2022-08-11T14:15:32.229Z,20.30
2022-08-11T14:18:39.625Z,20.30
2022-08-11T14:22:08.589Z,20.40
2022-08-11T14:25:13.137Z,20.40
2022-08-11T14:28:33.491Z,20.50
2022-08-11T14:31:44.716Z,20.50
2022-08-11T14:34:50.527Z,20.60
2022-08-11T14:37:54.733Z,20.90
2022-08-11T14:41:15.702Z,21.00
2022-08-11T14:44:37.421Z,21.80
2022-08-11T14:47:43.989Z,22.00
2022-08-11T14:50:48.953Z,22.30
2022-08-11T14:54:12.416Z,22.60
2022-08-11T14:57:15.651Z,22.10
2022-08-11T15:00:19.294Z,22.50
2022-08-11T15:03:26.303Z,22.30
2022-08-11T15:06:34.275Z,22.70
2022-08-11T15:10:09.871Z,23.80
2022-08-11T15:13:08.404Z,24.10
2022-08-11T15:16:30.034Z,25.20
2022-08-11T15:20:02.890Z,27.40
2022-08-11T15:24:36.491Z,30.20
2022-08-11T15:28:13.926Z,30.20
2022-08-11T15:39:21.242Z,30.20
2022-08-11T15:42:42.107Z,29.40
2022-08-11T15:45:50.657Z,29.60
2022-08-11T15:49:00.454Z,29.60
2022-08-11T15:52:07.634Z,29.80
2022-08-11T15:55:12.880Z,30.10
2022-08-11T15:58:37.082Z,30.40
2022-08-11T16:02:02.526Z,30.00
2022-08-11T16:05:11.137Z,29.10
2022-08-11T16:08:32.839Z,29.70
2022-08-11T16:11:39.198Z,30.30
2022-08-11T16:15:02.307Z,30.50
2022-08-11T16:18:08.692Z,31.50
2022-08-11T16:21:33.567Z,31.00
2022-08-11T16:27:04.810Z,31.40
2022-08-11T16:28:07.776Z,31.30
2022-08-11T16:31:13.188Z,30.70
2022-08-11T16:34:30.550Z,29.80
2022-08-11T16:37:55.110Z,28.30
2022-08-11T16:41:01.307Z,26.00
2022-08-11T16:44:37.369Z,24.80
2022-08-11T16:48:03.553Z,23.70
2022-08-11T16:51:08.594Z,23.70
2022-08-11T16:57:53.976Z,23.20
2022-08-11T17:04:55.438Z,22.50
2022-08-11T17:08:24.313Z,20.10
2022-08-11T17:15:35.269Z,22.00
2022-08-11T17:19:01.391Z,21.60
2022-08-11T17:25:31.625Z,21.50
2022-08-11T17:29:05.351Z,21.50
2022-08-11T17:32:56.401Z,21.40
2022-08-11T17:36:03.008Z,21.10
2022-08-11T17:39:09.702Z,21.00
2022-08-11T17:46:08.418Z,20.80
2022-08-11T17:49:14.349Z,20.50
2022-08-11T17:52:39.224Z,20.30
2022-08-11T17:56:12.793Z,20.50
2022-08-11T17:59:38.877Z,19.80
2022-08-11T18:03:08.889Z,19.70
2022-08-11T18:06:18.932Z,19.60
2022-08-11T18:24:03.193Z,19.10
2022-08-11T18:27:41.059Z,18.90
2022-08-11T18:31:08.524Z,19.00
2022-08-11T18:34:39.449Z,18.90
2022-08-11T18:38:06.391Z,18.80
2022-08-11T18:41:29.546Z,18.70
2022-08-11T18:44:55.152Z,18.50
2022-08-11T18:48:22.249Z,18.40
2022-08-11T18:51:50.724Z,18.30
2022-08-11T18:55:16.306Z,18.00
2022-08-11T18:58:44.596Z,17.80
2022-08-11T19:02:07.994Z,17.80
2022-08-11T19:06:05.977Z,17.70
2022-08-11T19:09:16.428Z,17.80
2022-08-11T19:12:38.757Z,17.80
2022-08-11T19:16:01.773Z,17.80
2022-08-11T19:19:29.588Z,17.70
2022-08-11T19:22:52.033Z,17.60
2022-08-11T19:26:14.693Z,17.50
2022-08-11T19:30:07.731Z,17.40
2022-08-11T19:33:51.236Z,16.70
2022-08-11T19:37:02.835Z,17.30
2022-08-11T19:40:27.401Z,17.20
2022-08-11T19:43:50.504Z,17.10
2022-08-11T19:47:12.689Z,17.00
2022-08-11T19:50:34.803Z,16.80
2022-08-11T19:54:02.148Z,16.70
2022-08-11T19:57:24.900Z,16.60
2022-08-11T20:00:46.974Z,16.50
2022-08-11T20:04:08.176Z,16.40
2022-08-11T20:07:30.515Z,16.30
2022-08-11T20:10:54.971Z,16.10
2022-08-11T20:14:18.352Z,16.10
2022-08-11T20:17:42.913Z,15.90
2022-08-11T20:21:20.975Z,15.80
2022-08-11T20:24:48.564Z,15.70
2022-08-11T20:28:11.779Z,15.70
2022-08-11T20:31:34.566Z,15.60
2022-08-11T20:34:57.435Z,15.50
2022-08-11T20:38:20.528Z,15.50
2022-08-11T20:41:49.154Z,15.50
2022-08-11T20:45:23.990Z,15.50
2022-08-11T20:48:46.113Z,15.40
2022-08-11T20:52:10.367Z,15.30
2022-08-11T20:55:51.838Z,15.30
2022-08-11T20:59:18.526Z,15.30
2022-08-11T21:02:45.575Z,15.20
2022-08-11T21:06:11.497Z,15.10
2022-08-11T21:13:25.875Z,15.00
2022-08-11T21:16:51.246Z,15.00
2022-08-11T21:20:20.590Z,16.60
2022-08-11T21:23:43.385Z,14.80
2022-08-11T21:27:07.289Z,14.70
2022-08-11T21:30:37.042Z,14.60
2022-08-11T21:33:59.400Z,14.60
2022-08-11T21:37:25.552Z,14.60
2022-08-11T21:40:47.542Z,14.60
2022-08-11T21:44:09.931Z,14.60
2022-08-11T21:47:43.319Z,14.70
2022-08-11T21:51:05.377Z,14.70
2022-08-11T21:54:27.934Z,14.60
2022-08-11T21:57:50.458Z,14.60
2022-08-11T22:01:13.002Z,14.60
2022-08-11T22:04:34.876Z,14.50
2022-08-11T22:07:57.400Z,14.60
2022-08-11T22:11:32.329Z,14.60
2022-08-11T22:14:54.185Z,14.70
2022-08-11T22:18:15.231Z,14.80
2022-08-11T22:22:01.147Z,14.90
2022-08-11T22:25:18.653Z,14.90
2022-08-11T22:28:41.397Z,14.90
2022-08-11T22:32:02.751Z,15.00
2022-08-11T22:35:28.663Z,15.00
2022-08-11T22:38:51.104Z,14.90
2022-08-11T22:42:12.172Z,14.70
2022-08-11T22:45:35.215Z,14.60
2022-08-11T22:48:56.770Z,14.40
2022-08-11T22:52:18.300Z,14.30
2022-08-11T22:55:40.463Z,14.20
2022-08-11T22:59:01.759Z,14.20
2022-08-11T23:02:26.279Z,14.10
2022-08-11T23:05:48.197Z,14.10
2022-08-11T23:09:09.495Z,14.70
2022-08-11T23:12:31.737Z,14.00
2022-08-11T23:15:53.321Z,14.00
2022-08-11T23:20:08.734Z,13.90
2022-08-11T23:22:57.161Z,13.90
2022-08-11T23:26:18.966Z,14.00
2022-08-11T23:29:39.728Z,14.00
2022-08-11T23:33:05.660Z,14.00
2022-08-11T23:36:36.218Z,14.00
2022-08-11T23:40:07.986Z,14.00
2022-08-11T23:43:38.585Z,13.80
2022-08-11T23:47:00.254Z,13.80
2022-08-11T23:50:21.741Z,13.70
2022-08-11T23:53:44.576Z,13.70
2022-08-11T23:57:05.956Z,13.60
